Time;durP1;ratioP1;P1;durP2;ratioP2;P2;SDS_P1;SDS_P2;PMS_P1;PMS_P2;Temp;Humidity;BMP_temperature;BMP_pressure;BME280_temperature;BME280_humidity;BME280_pressure;Samples;Min_cycle;Max_cycle;Signal;HPM_P1;HPM_P2
2022/05/31 00:00:38;;;;;;;4.07;1.83;;;8.30;99.90;;;;;;4992150;28;20427;-69
2022/05/31 00:03:05;;;;;;;5.65;1.98;;;8.30;99.90;;;;;;5009319;28;20394;-62
2022/05/31 00:05:32;;;;;;;1.63;1.63;;;8.20;99.90;;;;;;5009658;28;20454;-67
2022/05/31 00:07:58;;;;;;;1.83;1.73;;;8.20;99.90;;;;;;4994207;28;20094;-60
2022/05/31 00:10:24;;;;;;;1.95;1.55;;;8.20;99.90;;;;;;4993899;28;20041;-60
2022/05/31 00:12:50;;;;;;;1.67;1.58;;;8.20;99.90;;;;;;5009873;28;20056;-60
2022/05/31 00:15:18;;;;;;;3.60;1.73;;;8.10;99.90;;;;;;5010614;28;20057;-67
2022/05/31 00:17:44;;;;;;;1.92;1.80;;;8.10;99.90;;;;;;5006147;28;20512;-66
2022/05/31 00:20:12;;;;;;;3.67;2.00;;;8.10;99.90;;;;;;4993619;28;20053;-59
2022/05/31 00:22:40;;;;;;;4.30;1.92;;;8.10;99.90;;;;;;5001238;28;20405;-64
2022/05/31 00:25:07;;;;;;;2.33;1.77;;;8.10;99.90;;;;;;4999318;28;20468;-68
2022/05/31 00:27:33;;;;;;;2.08;1.73;;;8.10;99.90;;;;;;5010278;28;20038;-59
2022/05/31 00:29:59;;;;;;;6.10;1.90;;;8.10;99.90;;;;;;5009224;28;20107;-68
2022/05/31 00:32:34;;;;;;;3.33;1.45;;;8.10;99.90;;;;;;5013960;28;20042;-64
2022/05/31 00:35:06;;;;;;;1.75;1.55;;;8.10;99.90;;;;;;5007711;28;20072;-69
2022/05/31 00:37:34;;;;;;;3.75;2.05;;;8.10;99.90;;;;;;5010953;28;20056;-61
2022/05/31 00:40:00;;;;;;;5.38;2.95;;;8.00;99.90;;;;;;5026421;28;20136;-60
2022/05/31 00:42:26;;;;;;;1.70;1.60;;;8.00;99.90;;;;;;5028048;28;20081;-65
2022/05/31 00:44:52;;;;;;;1.88;1.30;;;7.90;99.90;;;;;;5027443;28;20471;-59
2022/05/31 00:47:32;;;;;;;1.60;1.50;;;7.90;99.90;;;;;;5009160;28;20073;-65
2022/05/31 00:50:06;;;;;;;2.97;1.58;;;7.90;99.90;;;;;;5010254;28;20048;-60
2022/05/31 00:52:47;;;;;;;2.15;1.70;;;7.90;99.90;;;;;;5026872;28;20048;-61
2022/05/31 00:55:29;;;;;;;3.78;1.67;;;7.90;99.90;;;;;;5027643;28;20056;-63
2022/05/31 00:58:28;;;;;;;1.60;1.50;;;7.90;99.90;;;;;;5009910;28;20057;-62
2022/05/31 01:00:55;;;;;;;4.13;1.38;;;7.90;99.90;;;;;;4999072;28;20056;-66
2022/05/31 01:03:25;;;;;;;;;;;7.90;99.90;;;;;;5035949;28;20076;-66
2022/05/31 01:05:51;;;;;;;3.38;1.70;;;7.90;99.90;;;;;;5008776;28;19932;-68
2022/05/31 01:08:16;;;;;;;2.40;1.48;;;7.90;99.90;;;;;;5009674;28;20293;-63
2022/05/31 01:10:43;;;;;;;2.10;2.00;;;8.00;99.90;;;;;;5009417;28;20041;-65
2022/05/31 01:13:17;;;;;;;1.70;1.60;;;8.00;99.90;;;;;;5009087;28;20053;-60
2022/05/31 01:15:45;;;;;;;2.72;1.63;;;8.00;99.90;;;;;;5009907;28;20049;-70
2022/05/31 01:18:11;;;;;;;1.70;1.55;;;8.10;99.90;;;;;;4991696;28;20108;-68
2022/05/31 01:20:38;;;;;;;2.45;1.50;;;8.00;99.90;;;;;;5019759;28;20127;-63
2022/05/31 01:23:09;;;;;;;2.25;1.50;;;8.00;99.90;;;;;;4991633;28;20128;-64
2022/05/31 01:25:43;;;;;;;2.55;2.00;;;8.10;99.90;;;;;;5009773;28;20053;-68
2022/05/31 01:28:18;;;;;;;2.90;1.58;;;8.10;99.90;;;;;;5008912;28;20045;-59
2022/05/31 01:30:51;;;;;;;2.38;1.50;;;8.10;99.90;;;;;;5017921;28;20471;-59
2022/05/31 01:33:26;;;;;;;3.75;1.40;;;8.10;99.90;;;;;;4992769;28;20501;-65
2022/05/31 01:35:53;;;;;;;2.30;1.48;;;8.10;99.90;;;;;;5005191;28;20050;-65
2022/05/31 01:38:29;;;;;;;1.40;1.30;;;8.10;99.90;;;;;;5008180;28;20045;-65
2022/05/31 01:41:04;;;;;;;3.30;1.85;;;8.10;99.90;;;;;;5026189;28;20368;-63
2022/05/31 01:43:30;;;;;;;2.10;1.67;;;8.10;99.90;;;;;;4988873;28;20125;-66
2022/05/31 01:46:03;;;;;;;3.85;1.55;;;8.10;99.90;;;;;;5001660;28;20128;-63
2022/05/31 01:48:30;;;;;;;5.22;1.70;;;8.10;99.90;;;;;;5007995;28;20033;-66
2022/05/31 01:50:59;;;;;;;2.22;1.77;;;8.10;99.90;;;;;;5009198;28;20069;-59
2022/05/31 01:53:25;;;;;;;6.85;1.75;;;8.10;99.90;;;;;;5007611;28;20139;-66
2022/05/31 01:55:51;;;;;;;2.65;1.50;;;8.20;99.90;;;;;;5009327;28;20085;-65
2022/05/31 01:58:20;;;;;;;3.53;1.50;;;8.20;99.90;;;;;;5006490;28;20053;-63
2022/05/31 02:00:48;;;;;;;3.88;1.98;;;8.20;99.90;;;;;;5009105;28;20511;-63
2022/05/31 02:03:16;;;;;;;1.92;1.80;;;8.30;99.90;;;;;;4983167;28;20472;-60
2022/05/31 02:05:47;;;;;;;1.60;1.50;;;8.30;99.90;;;;;;5007901;28;20041;-63
2022/05/31 02:08:13;;;;;;;2.60;1.80;;;8.30;99.90;;;;;;5008640;28;20044;-61
2022/05/31 02:10:42;;;;;;;2.10;1.55;;;8.30;99.90;;;;;;5023491;28;20048;-69
2022/05/31 02:13:08;;;;;;;2.40;1.60;;;8.30;99.90;;;;;;5026408;28;20088;-60
2022/05/31 02:15:34;;;;;;;6.78;1.40;;;8.20;99.90;;;;;;5008537;28;20061;-59
2022/05/31 02:18:00;;;;;;;1.77;1.67;;;8.20;99.90;;;;;;5008470;28;20486;-60
2022/05/31 02:20:26;;;;;;;1.40;1.30;;;8.20;99.90;;;;;;5008537;28;20056;-62
2022/05/31 02:22:51;;;;;;;3.38;1.52;;;8.20;99.90;;;;;;5007195;28;20431;-60
2022/05/31 02:25:18;;;;;;;3.45;1.65;;;8.30;99.90;;;;;;5008846;28;20349;-66
2022/05/31 02:27:45;;;;;;;2.47;1.70;;;8.30;99.90;;;;;;5007469;28;20056;-68
2022/05/31 02:30:12;;;;;;;3.67;1.90;;;8.30;99.90;;;;;;5008311;28;20053;-67
2022/05/31 02:32:38;;;;;;;2.17;1.85;;;8.40;99.90;;;;;;5008474;28;20527;-61
2022/05/31 02:35:05;;;;;;;2.72;1.90;;;8.40;99.90;;;;;;5011708;28;20136;-59
2022/05/31 02:37:32;;;;;;;2.03;1.80;;;8.40;99.90;;;;;;5008057;28;20545;-62
2022/05/31 02:39:58;;;;;;;4.88;2.40;;;8.40;99.90;;;;;;5007396;28;20050;-67
2022/05/31 02:42:24;;;;;;;2.10;1.90;;;8.40;99.90;;;;;;5008730;28;20385;-61
2022/05/31 02:44:51;;;;;;;3.08;2.67;;;8.40;99.90;;;;;;5009441;28;20052;-62
2022/05/31 02:47:17;;;;;;;3.78;2.13;;;8.40;99.90;;;;;;5012584;28;20045;-62
2022/05/31 02:49:44;;;;;;;2.28;2.05;;;8.50;99.90;;;;;;5011276;28;20132;-61
2022/05/31 02:52:10;;;;;;;1.85;1.75;;;8.50;99.90;;;;;;5011712;28;20128;-63
2022/05/31 02:54:36;;;;;;;3.47;2.05;;;8.50;99.90;;;;;;5029640;28;20534;-61
2022/05/31 02:57:02;;;;;;;2.00;1.90;;;8.50;99.90;;;;;;5029660;28;20049;-65
2022/05/31 02:59:28;;;;;;;2.08;1.98;;;8.50;99.90;;;;;;5011975;28;20052;-59
2022/05/31 03:01:54;;;;;;;3.25;2.20;;;8.50;99.90;;;;;;5017092;28;20049;-62
2022/05/31 03:04:21;;;;;;;2.22;1.85;;;8.50;99.90;;;;;;4998308;28;20046;-63
2022/05/31 03:06:46;;;;;;;2.95;1.80;;;8.50;99.90;;;;;;5011480;28;20045;-63
2022/05/31 03:09:12;;;;;;;3.05;1.92;;;8.50;99.90;;;;;;4992332;28;20574;-61
2022/05/31 03:11:54;;;;;;;4.28;2.15;;;8.50;99.90;;;;;;4984561;28;20080;-59
2022/05/31 03:14:26;;;;;;;2.10;1.90;;;8.50;99.90;;;;;;5025214;28;20048;-61
2022/05/31 03:16:59;;;;;;;2.88;2.15;;;8.50;99.90;;;;;;5028799;28;20057;-66
2022/05/31 03:19:29;;;;;;;2.50;2.10;;;8.50;99.90;;;;;;5010325;28;20471;-59
2022/05/31 03:22:06;;;;;;;4.50;2.03;;;8.60;99.90;;;;;;5012310;28;20042;-59
2022/05/31 03:24:40;;;;;;;2.58;2.30;;;8.50;99.90;;;;;;5024748;28;20085;-64
2022/05/31 03:27:08;;;;;;;2.35;1.80;;;8.60;99.90;;;;;;5011971;28;20116;-61
2022/05/31 03:29:38;;;;;;;2.20;2.10;;;8.60;99.90;;;;;;5011748;28;20124;-61
2022/05/31 03:32:05;;;;;;;3.20;2.10;;;8.60;99.90;;;;;;5010421;28;20058;-63
2022/05/31 03:34:32;;;;;;;2.28;2.08;;;8.60;99.90;;;;;;5011455;28;20092;-67
2022/05/31 03:36:58;;;;;;;1.98;1.88;;;8.70;99.90;;;;;;5010289;28;20147;-62
2022/05/31 03:39:24;;;;;;;2.53;2.15;;;8.70;99.90;;;;;;5011236;28;20085;-63
2022/05/31 03:41:49;;;;;;;2.25;2.15;;;8.70;99.90;;;;;;5010715;28;20041;-64
2022/05/31 03:44:15;;;;;;;2.58;2.30;;;8.70;99.90;;;;;;5011059;28;20132;-66
2022/05/31 03:46:41;;;;;;;2.47;2.10;;;8.80;99.90;;;;;;5010876;28;20033;-59
2022/05/31 03:49:07;;;;;;;4.30;2.20;;;8.80;99.90;;;;;;5010898;28;20041;-65
2022/05/31 03:51:32;;;;;;;2.80;2.58;;;8.90;99.90;;;;;;4994800;28;20060;-60
2022/05/31 03:53:58;;;;;;;3.28;2.80;;;8.90;99.90;;;;;;5010534;28;20102;-60
2022/05/31 03:56:24;;;;;;;3.53;3.10;;;8.90;99.90;;;;;;5010509;28;20045;-65
2022/05/31 03:58:49;;;;;;;8.00;3.90;;;9.00;99.90;;;;;;5009991;28;20048;-64
2022/05/31 04:01:15;;;;;;;2.78;2.55;;;9.00;99.90;;;;;;5014925;28;20088;-66
2022/05/31 04:03:42;;;;;;;11.13;3.25;;;9.10;99.90;;;;;;5012417;28;20037;-59
2022/05/31 04:06:09;;;;;;;4.65;4.00;;;9.10;99.90;;;;;;5010810;28;20064;-65
2022/05/31 04:08:35;;;;;;;4.53;3.50;;;9.20;99.90;;;;;;5010142;28;20049;-60
2022/05/31 04:11:01;;;;;;;3.92;3.50;;;9.20;99.90;;;;;;4993843;28;20100;-63
2022/05/31 04:13:28;;;;;;;6.07;4.10;;;9.30;99.90;;;;;;5010537;28;20515;-61
2022/05/31 04:16:12;;;;;;;5.93;3.90;;;9.30;99.90;;;;;;5009619;28;20049;-63
2022/05/31 04:18:38;;;;;;;4.10;3.65;;;9.40;99.90;;;;;;5010343;28;20133;-61
2022/05/31 04:21:07;;;;;;;4.45;4.03;;;9.50;99.90;;;;;;5009667;28;20045;-61
2022/05/31 04:26:17;;;;;;;4.57;4.10;;;9.50;99.90;;;;;;5010398;28;20041;-66
2022/05/31 04:28:43;;;;;;;6.45;4.35;;;9.60;99.90;;;;;;5009824;28;20094;-63
2022/05/31 04:31:09;;;;;;;5.80;4.45;;;9.60;99.90;;;;;;5011831;28;20036;-64
2022/05/31 04:33:35;;;;;;;6.38;4.70;;;9.70;99.90;;;;;;4985647;28;20043;-59
2022/05/31 04:36:07;;;;;;;6.38;4.80;;;9.70;99.90;;;;;;5001798;28;20058;-68
2022/05/31 04:38:34;;;;;;;10.75;4.80;;;9.70;99.90;;;;;;5006731;28;20496;-60
2022/05/31 04:41:00;;;;;;;4.55;4.15;;;9.70;99.90;;;;;;5006492;28;20050;-62
2022/05/31 04:43:26;;;;;;;6.78;4.25;;;9.80;99.90;;;;;;5003232;28;20093;-68
2022/05/31 04:45:52;;;;;;;5.80;4.00;;;9.70;99.90;;;;;;4997191;28;20064;-64
2022/05/31 04:48:19;;;;;;;4.57;4.05;;;9.70;99.90;;;;;;5007107;28;20042;-65
2022/05/31 04:50:44;;;;;;;4.78;4.28;;;9.80;99.90;;;;;;5002844;28;20039;-62
2022/05/31 04:53:10;;;;;;;5.28;4.40;;;9.80;99.90;;;;;;5002652;28;20046;-65
2022/05/31 04:55:36;;;;;;;5.70;4.40;;;9.80;99.90;;;;;;5002442;28;20042;-60
2022/05/31 04:58:02;;;;;;;7.22;4.47;;;9.80;99.90;;;;;;4983947;28;20048;-59
2022/05/31 05:00:30;;;;;;;4.93;4.38;;;9.80;99.90;;;;;;4990034;28;20038;-61
2022/05/31 05:02:56;;;;;;;5.53;4.38;;;9.80;99.90;;;;;;4992814;28;20050;-69
2022/05/31 05:05:22;;;;;;;6.07;4.55;;;9.90;99.90;;;;;;5006358;28;20077;-67
2022/05/31 05:07:48;;;;;;;5.55;4.32;;;9.90;99.90;;;;;;5005917;28;20081;-70
2022/05/31 05:10:13;;;;;;;4.78;4.05;;;9.90;99.90;;;;;;4990140;28;20042;-66
2022/05/31 05:12:39;;;;;;;5.28;4.78;;;10.00;99.90;;;;;;4988875;28;20041;-66
2022/05/31 05:15:05;;;;;;;9.07;4.43;;;10.00;99.90;;;;;;4989336;28;20108;-62
2022/05/31 05:17:31;;;;;;;7.50;4.57;;;10.00;99.90;;;;;;5003987;28;20050;-69
2022/05/31 05:19:57;;;;;;;5.68;4.00;;;10.10;99.90;;;;;;5004946;28;20138;-66
2022/05/31 05:22:23;;;;;;;4.78;3.92;;;10.10;99.90;;;;;;5002734;28;20112;-68
2022/05/31 05:24:49;;;;;;;4.38;4.07;;;10.10;99.90;;;;;;4986471;28;20038;-68
2022/05/31 05:27:14;;;;;;;5.38;4.28;;;10.10;99.90;;;;;;5006064;28;20081;-62
2022/05/31 05:32:24;;;;;;;5.18;3.92;;;10.20;99.90;;;;;;5005201;28;20046;-67
2022/05/31 05:34:55;;;;;;;5.45;3.90;;;10.20;99.90;;;;;;4988984;28;20046;-60
2022/05/31 05:37:20;;;;;;;;;;;10.20;99.90;;;;;;5005687;28;20112;-61
2022/05/31 05:39:46;;;;;;;5.10;3.50;;;10.20;99.90;;;;;;5005420;28;20372;-60
2022/05/31 05:42:13;;;;;;;3.75;3.13;;;10.20;99.90;;;;;;4987920;28;20406;-65
2022/05/31 05:44:39;;;;;;;3.80;3.35;;;10.30;99.90;;;;;;5003059;28;20056;-70
2022/05/31 05:47:06;;;;;;;5.32;3.42;;;10.30;99.90;;;;;;5005423;28;20054;-63
2022/05/31 05:49:32;;;;;;;4.43;3.58;;;10.30;99.90;;;;;;5005489;28;20118;-62
2022/05/31 05:52:01;;;;;;;7.13;3.72;;;10.40;99.90;;;;;;5005069;28;20149;-65
2022/05/31 05:54:27;;;;;;;8.73;3.63;;;10.50;99.90;;;;;;4992961;28;20514;-70
2022/05/31 05:56:53;;;;;;;4.55;3.90;;;10.50;99.90;;;;;;5007168;28;20582;-60
2022/05/31 05:59:20;;;;;;;5.30;3.60;;;10.50;99.90;;;;;;4987404;28;20043;-68
2022/05/31 06:01:50;;;;;;;8.23;3.75;;;10.50;99.90;;;;;;5007282;28;20088;-60
2022/05/31 06:04:27;;;;;;;5.13;3.70;;;10.50;99.90;;;;;;5004624;28;20099;-60
2022/05/31 06:07:19;;;;;;;4.07;3.67;;;10.60;99.90;;;;;;5005553;28;20523;-66
2022/05/31 06:09:51;;;;;;;4.68;3.85;;;10.70;99.90;;;;;;5002583;28;20046;-63
2022/05/31 06:12:21;;;;;;;4.07;3.60;;;10.70;99.90;;;;;;5004381;28;20041;-62
2022/05/31 06:14:58;;;;;;;4.72;3.40;;;10.80;99.90;;;;;;4989190;28;20041;-68
2022/05/31 06:17:31;;;;;;;4.72;3.80;;;10.90;99.90;;;;;;5004510;28;20184;-66
2022/05/31 06:20:01;;;;;;;7.53;4.07;;;11.00;99.90;;;;;;5004723;28;20099;-61
2022/05/31 06:22:29;;;;;;;4.28;3.30;;;11.10;99.90;;;;;;5005209;28;20133;-66
2022/05/31 06:24:57;;;;;;;3.70;3.28;;;11.20;99.90;;;;;;5001479;28;20517;-64
2022/05/31 06:27:24;;;;;;;5.18;3.85;;;11.30;99.90;;;;;;4998856;28;20050;-68
2022/05/31 06:29:50;;;;;;;3.67;3.30;;;11.30;99.90;;;;;;5003769;28;20042;-62
2022/05/31 06:32:16;;;;;;;5.32;3.05;;;11.40;99.90;;;;;;4990253;28;20068;-67
2022/05/31 06:34:45;;;;;;;4.57;3.20;;;11.50;99.90;;;;;;4984828;28;20504;-60
2022/05/31 06:37:13;;;;;;;7.15;3.78;;;11.50;99.90;;;;;;5002214;28;20105;-71
2022/05/31 06:39:42;;;;;;;3.60;3.30;;;11.70;99.90;;;;;;5000529;28;20064;-71
2022/05/31 06:42:10;;;;;;;3.00;2.80;;;11.80;99.90;;;;;;5004675;28;20074;-67
2022/05/31 06:44:38;;;;;;;3.75;3.45;;;11.80;99.90;;;;;;5005616;28;20046;-65
2022/05/31 06:47:05;;;;;;;4.63;4.18;;;11.90;99.90;;;;;;5003769;28;20438;-61
2022/05/31 06:49:32;;;;;;;5.30;3.45;;;12.00;99.90;;;;;;5004164;28;20045;-71
2022/05/31 06:57:36;;;;;;;4.38;3.97;;;12.30;99.90;;;;;;5004931;28;20492;-65
2022/05/31 07:00:10;;;;;;;6.75;3.25;;;12.50;99.90;;;;;;5003802;28;20052;-67
2022/05/31 07:02:36;;;;;;;6.22;3.50;;;12.70;99.90;;;;;;4986688;28;20042;-65
2022/05/31 07:05:02;;;;;;;5.00;3.65;;;12.80;99.90;;;;;;5003942;28;20095;-64
2022/05/31 07:07:28;;;;;;;4.20;3.38;;;12.80;99.90;;;;;;4974557;28;20042;-63
2022/05/31 07:09:54;;;;;;;5.80;3.45;;;12.90;99.90;;;;;;5004130;28;20123;-63
2022/05/31 07:12:20;;;;;;;5.10;4.40;;;13.10;99.90;;;;;;4993574;28;20538;-71
2022/05/31 07:14:46;;;;;;;4.47;4.00;;;13.30;99.90;;;;;;5006194;28;20053;-62
2022/05/31 07:17:12;;;;;;;3.67;3.38;;;13.50;99.90;;;;;;4987727;28;20042;-71
2022/05/31 07:19:39;;;;;;;4.90;3.22;;;13.50;99.90;;;;;;4988229;28;20053;-70
2022/05/31 07:22:05;;;;;;;6.90;4.13;;;13.50;99.90;;;;;;5002704;28;20041;-64
2022/05/31 07:24:31;;;;;;;5.25;4.00;;;13.50;99.90;;;;;;5004949;28;20053;-69
2022/05/31 07:26:58;;;;;;;8.77;4.35;;;13.60;99.90;;;;;;5003327;28;20080;-61
2022/05/31 07:29:24;;;;;;;3.70;3.42;;;13.80;99.90;;;;;;5004403;28;20133;-71
2022/05/31 07:31:50;;;;;;;3.65;3.35;;;14.00;99.90;;;;;;4996283;28;20477;-61
2022/05/31 07:34:16;;;;;;;7.53;3.22;;;14.20;99.90;;;;;;5007250;28;20057;-69
2022/05/31 07:36:43;;;;;;;4.65;3.10;;;14.40;99.90;;;;;;5008045;28;20034;-62
2022/05/31 07:39:15;;;;;;;3.95;3.13;;;14.80;99.90;;;;;;4990335;28;20050;-67
2022/05/31 07:41:41;;;;;;;4.82;3.15;;;14.90;99.50;;;;;;4981920;28;20046;-67
2022/05/31 07:44:08;;;;;;;3.42;3.10;;;15.00;99.40;;;;;;5006850;28;20156;-61
2022/05/31 07:46:34;;;;;;;3.25;2.92;;;15.00;96.40;;;;;;5007474;28;20042;-71
2022/05/31 07:49:00;;;;;;;4.47;3.00;;;15.10;94.00;;;;;;5006809;28;20065;-68
2022/05/31 07:51:27;;;;;;;2.92;2.65;;;15.00;90.40;;;;;;5005587;28;20042;-62
2022/05/31 07:53:53;;;;;;;4.95;3.47;;;15.00;90.10;;;;;;5002267;28;20050;-71
2022/05/31 07:56:20;;;;;;;3.22;2.80;;;14.90;93.70;;;;;;5005856;28;20044;-65
2022/05/31 07:58:47;;;;;;;3.88;3.05;;;15.00;95.20;;;;;;5006944;28;20057;-71
2022/05/31 08:01:18;;;;;;;4.47;3.03;;;15.10;92.80;;;;;;4986591;28;20082;-63
2022/05/31 08:03:44;;;;;;;3.20;2.72;;;15.30;95.40;;;;;;5006857;28;20116;-69
2022/05/31 08:06:13;;;;;;;5.35;2.97;;;15.30;90.70;;;;;;5007432;28;20038;-61
2022/05/31 08:08:39;;;;;;;3.08;2.58;;;15.30;95.80;;;;;;4977395;28;20077;-70
2022/05/31 08:11:11;;;;;;;2.75;2.42;;;15.40;87.70;;;;;;4989376;28;20499;-62
2022/05/31 08:13:38;;;;;;;4.28;2.53;;;15.60;90.80;;;;;;5006117;28;20057;-68
2022/05/31 08:16:05;;;;;;;2.45;2.25;;;15.90;80.20;;;;;;5006565;28;20077;-62
2022/05/31 08:18:31;;;;;;;4.05;3.00;;;16.20;69.50;;;;;;4989540;28;20058;-70
2022/05/31 08:21:05;;;;;;;6.50;2.92;;;16.30;83.20;;;;;;5006161;28;20053;-64
2022/05/31 08:23:32;;;;;;;3.35;3.05;;;16.50;76.80;;;;;;5005743;28;20484;-71
2022/05/31 08:25:58;;;;;;;3.47;2.90;;;16.40;70.80;;;;;;5003625;28;20034;-61
2022/05/31 08:28:24;;;;;;;4.20;2.60;;;16.30;80.30;;;;;;4988935;28;20049;-65
2022/05/31 08:30:58;;;;;;;2.35;2.00;;;16.30;76.30;;;;;;4987193;28;20053;-64
2022/05/31 08:33:27;;;;;;;4.20;2.15;;;16.40;71.60;;;;;;5002959;28;20093;-72
2022/05/31 08:35:54;;;;;;;2.30;2.10;;;16.60;82.40;;;;;;4983446;28;20137;-73
2022/05/31 08:38:20;;;;;;;4.95;3.00;;;16.70;73.00;;;;;;4963729;28;20146;-71
2022/05/31 08:41:08;;;;;;;7.53;2.63;;;16.70;65.00;;;;;;4977325;28;20050;-72
2022/05/31 08:43:47;;;;;;;4.55;2.60;;;16.40;69.60;;;;;;4974152;28;20064;-71
2022/05/31 08:46:42;;;;;;;3.10;2.50;;;16.30;72.40;;;;;;5000980;28;20041;-71
2022/05/31 08:51:52;;;;;;;4.78;2.42;;;16.30;78.40;;;;;;4977368;28;20493;-73
2022/05/31 08:52:32;;;;;;;3.58;2.10;;;16.50;71.30;;;;;;4979706;28;20054;-65
2022/05/31 08:57:58;;;;;;;8.88;1.90;;;17.10;54.80;;;;;;4997515;28;20050;-65
2022/05/31 09:00:28;;;;;;;2.15;1.48;;;17.00;46.50;;;;;;4994029;28;20049;-66
2022/05/31 09:03:07;;;;;;;2.70;1.52;;;17.00;44.80;;;;;;4996361;28;20447;-62
2022/05/31 09:06:26;;;;;;;5.65;1.75;;;16.80;33.70;;;;;;4987457;28;20113;-73
2022/05/31 09:09:10;;;;;;;1.67;1.40;;;16.40;34.10;;;;;;4976798;28;20486;-74
2022/05/31 09:11:53;;;;;;;3.25;1.52;;;16.10;38.00;;;;;;4980882;28;20050;-72
2022/05/31 09:14:43;;;;;;;2.00;1.50;;;16.00;42.20;;;;;;4985507;28;20046;-73
2022/05/31 09:17:21;;;;;;;7.28;1.67;;;16.00;47.70;;;;;;4985602;28;20615;-66
2022/05/31 09:19:58;;;;;;;3.63;1.52;;;16.00;50.30;;;;;;4988691;28;20150;-61
2022/05/31 09:22:25;;;;;;;1.60;1.50;;;16.40;52.20;;;;;;4985316;28;20061;-70
2022/05/31 09:24:51;;;;;;;8.68;2.00;;;16.80;62.50;;;;;;4980804;28;20177;-67
2022/05/31 09:27:46;;;;;;;1.80;1.70;;;17.10;53.30;;;;;;4993944;28;20046;-68
2022/05/31 09:30:21;;;;;;;1.95;1.73;;;17.30;60.60;;;;;;4966776;28;20081;-70
2022/05/31 09:33:06;;;;;;;5.15;1.88;;;17.40;39.70;;;;;;4992370;28;20065;-73
2022/05/31 09:35:53;;;;;;;5.38;1.80;;;17.50;47.40;;;;;;5005130;28;20055;-66
2022/05/31 09:38:44;;;;;;;2.25;1.70;;;17.70;46.10;;;;;;4989000;28;20058;-68
2022/05/31 09:41:41;;;;;;;2.47;1.73;;;18.00;44.80;;;;;;5007543;28;20114;-62
2022/05/31 09:44:13;;;;;;;3.55;1.67;;;18.30;45.30;;;;;;4990923;28;20099;-73
2022/05/31 09:46:52;;;;;;;6.22;1.85;;;18.40;34.20;;;;;;5003674;28;20058;-67
2022/05/31 09:49:39;;;;;;;;;;;18.30;27.90;;;;;;5004032;28;20511;-67
2022/05/31 09:52:34;;;;;;;3.17;1.70;;;18.10;31.00;;;;;;5003663;28;20354;-65
2022/05/31 09:58:09;;;;;;;6.95;2.00;;;17.80;33.30;;;;;;5004884;28;20403;-73
2022/05/31 10:00:36;;;;;;;3.67;1.98;;;17.50;30.40;;;;;;5006266;28;20497;-68
2022/05/31 10:03:13;;;;;;;2.17;1.67;;;17.20;34.10;;;;;;4990085;28;20037;-64
2022/05/31 10:05:41;;;;;;;2.00;1.75;;;17.10;44.10;;;;;;5006137;28;20037;-67
2022/05/31 10:08:29;;;;;;;2.90;1.67;;;16.90;38.10;;;;;;5006863;28;20126;-71
2022/05/31 10:10:55;;;;;;;1.98;1.50;;;16.80;44.40;;;;;;5005780;28;20049;-75
2022/05/31 10:13:41;;;;;;;2.72;1.85;;;17.00;61.10;;;;;;4989673;28;20120;-73
2022/05/31 10:16:19;;;;;;;3.13;1.80;;;17.30;44.80;;;;;;5004605;28;20403;-70
2022/05/31 10:18:57;;;;;;;2.80;2.03;;;17.40;47.40;;;;;;5003784;28;20593;-74
2022/05/31 10:21:30;;;;;;;3.97;1.90;;;17.50;38.50;;;;;;5005584;28;20149;-68
2022/05/31 10:24:03;;;;;;;3.33;1.95;;;17.50;47.60;;;;;;5005282;28;20057;-73
2022/05/31 10:26:32;;;;;;;4.05;1.95;;;17.70;43.80;;;;;;5006823;28;20073;-64
2022/05/31 10:29:06;;;;;;;7.07;2.10;;;18.00;39.20;;;;;;5022547;28;20120;-73
2022/05/31 10:31:38;;;;;;;2.00;1.45;;;17.60;32.10;;;;;;5005457;28;20072;-64
2022/05/31 10:34:23;;;;;;;2.35;1.90;;;17.40;31.00;;;;;;5005002;28;20483;-63
2022/05/31 10:36:55;;;;;;;2.88;1.70;;;17.30;36.20;;;;;;4986750;28;20060;-73
2022/05/31 10:39:27;;;;;;;2.33;1.98;;;17.10;44.60;;;;;;5004366;28;20507;-71
2022/05/31 10:41:57;;;;;;;1.95;1.73;;;16.80;42.70;;;;;;5006804;28;20132;-67
2022/05/31 10:44:56;;;;;;;2.05;1.80;;;16.70;36.00;;;;;;4988691;28;20395;-72
2022/05/31 10:47:24;;;;;;;3.03;1.80;;;16.40;49.40;;;;;;4988864;28;20057;-73
2022/05/31 10:49:50;;;;;;;3.20;1.90;;;16.30;43.70;;;;;;5002662;28;20053;-66
2022/05/31 10:52:37;;;;;;;3.08;1.77;;;16.10;48.90;;;;;;5013731;28;20119;-71
2022/05/31 10:55:40;;;;;;;4.68;2.17;;;16.10;57.40;;;;;;5003418;28;20057;-74
2022/05/31 10:58:33;;;;;;;2.05;1.95;;;16.00;50.20;;;;;;5003275;28;20081;-71
2022/05/31 11:01:44;;;;;;;4.85;1.90;;;16.00;55.30;;;;;;5006990;28;20080;-70
2022/05/31 11:04:28;;;;;;;3.03;1.70;;;16.00;57.60;;;;;;4995990;28;20042;-67
2022/05/31 11:07:04;;;;;;;2.80;1.90;;;16.00;49.90;;;;;;5022790;28;20055;-70
2022/05/31 11:12:56;;;;;;;2.10;1.85;;;15.80;45.80;;;;;;5008227;28;20133;-74
2022/05/31 11:15:31;;;;;;;3.17;1.90;;;15.70;53.70;;;;;;5008562;28;20045;-67
2022/05/31 11:18:26;;;;;;;2.20;1.80;;;15.80;49.50;;;;;;5006253;28;20373;-71
2022/05/31 11:21:07;;;;;;;5.93;2.10;;;15.80;51.10;;;;;;5011207;28;20065;-66
2022/05/31 11:23:54;;;;;;;3.60;1.88;;;15.80;55.10;;;;;;5010010;28;20053;-71
2022/05/31 11:26:57;;;;;;;6.18;2.08;;;15.90;60.70;;;;;;4994664;28;20050;-69
2022/05/31 11:29:53;;;;;;;4.88;2.30;;;16.00;49.40;;;;;;5009281;28;20041;-74
2022/05/31 11:33:04;;;;;;;2.08;1.85;;;16.00;51.00;;;;;;4992511;28;20042;-69
2022/05/31 11:35:56;;;;;;;3.40;2.10;;;16.10;49.90;;;;;;5009916;28;20510;-72
2022/05/31 11:38:46;;;;;;;3.75;2.55;;;16.30;60.30;;;;;;5010894;28;20049;-68
2022/05/31 11:41:16;;;;;;;6.28;1.83;;;16.20;45.80;;;;;;5008471;28;20452;-64
2022/05/31 11:44:02;;;;;;;;;;;16.30;42.40;;;;;;5010979;28;20056;-69
2022/05/31 11:46:33;;;;;;;3.10;2.15;;;16.30;50.70;;;;;;4959542;28;19925;-65
2022/05/31 11:49:02;;;;;;;3.28;2.30;;;16.30;44.30;;;;;;5010588;28;20053;-70
2022/05/31 11:51:31;;;;;;;5.88;2.30;;;16.50;50.30;;;;;;5010415;28;20069;-63
2022/05/31 11:54:04;;;;;;;3.42;2.08;;;16.70;46.60;;;;;;5009454;28;20523;-71
2022/05/31 11:56:52;;;;;;;4.65;2.10;;;16.70;40.80;;;;;;5007426;28;20041;-66
2022/05/31 11:59:45;;;;;;;8.82;3.05;;;16.80;36.80;;;;;;5007509;28;20475;-66
2022/05/31 12:02:32;;;;;;;4.00;1.75;;;16.90;40.80;;;;;;5020641;28;20054;-74
2022/05/31 12:05:19;;;;;;;1.70;1.60;;;16.90;33.50;;;;;;5004626;28;20049;-73
2022/05/31 12:08:09;;;;;;;4.00;2.03;;;17.00;34.70;;;;;;4997103;28;20049;-73
2022/05/31 12:10:42;;;;;;;6.63;1.70;;;17.00;33.60;;;;;;5005209;28;20101;-64
2022/05/31 12:13:10;;;;;;;3.80;1.58;;;17.10;38.20;;;;;;5005570;28;20042;-72
2022/05/31 12:15:42;;;;;;;2.53;1.50;;;17.10;36.10;;;;;;5008450;28;20119;-70
2022/05/31 12:18:28;;;;;;;6.85;1.83;;;17.20;36.20;;;;;;4991631;28;20049;-71
2022/05/31 12:21:12;;;;;;;4.60;1.80;;;17.40;37.60;;;;;;5005405;28;20053;-72
2022/05/31 12:23:51;;;;;;;2.78;1.63;;;17.50;32.30;;;;;;5008021;28;20157;-73
2022/05/31 12:26:28;;;;;;;3.10;1.67;;;17.60;31.80;;;;;;5007892;28;20041;-72
2022/05/31 12:29:05;;;;;;;2.33;1.35;;;17.70;45.00;;;;;;4992734;28;20041;-67
2022/05/31 12:31:34;;;;;;;5.38;1.50;;;17.90;37.30;;;;;;5007346;28;20052;-68
2022/05/31 12:34:33;;;;;;;2.47;1.30;;;18.00;26.90;;;;;;5006635;28;20092;-63
2022/05/31 12:37:05;;;;;;;1.60;1.30;;;17.90;28.60;;;;;;5018245;28;20045;-66
2022/05/31 12:39:33;;;;;;;3.28;1.50;;;17.80;19.00;;;;;;5008590;28;20060;-68
2022/05/31 12:42:17;;;;;;;3.33;1.35;;;17.50;22.20;;;;;;5008698;28;20041;-69
2022/05/31 12:44:48;;;;;;;3.13;1.42;;;17.20;28.70;;;;;;5007111;28;20463;-62
2022/05/31 12:47:29;;;;;;;2.42;1.65;;;16.90;27.70;;;;;;5007308;28;20494;-68
2022/05/31 12:50:07;;;;;;;2.72;1.25;;;16.70;27.20;;;;;;5006799;28;20107;-65
2022/05/31 12:53:12;;;;;;;5.38;1.50;;;16.70;24.80;;;;;;5000253;28;20360;-62
2022/05/31 12:55:46;;;;;;;3.20;1.00;;;16.70;23.40;;;;;;5018049;28;20057;-68
2022/05/31 12:58:29;;;;;;;2.30;1.00;;;16.80;19.00;;;;;;5008268;28;20048;-70
2022/05/31 13:01:27;;;;;;;1.02;0.90;;;16.70;18.00;;;;;;5009660;28;20053;-61
2022/05/31 13:04:07;;;;;;;3.83;1.27;;;16.60;12.60;;;;;;4946540;28;20049;-66
2022/05/31 13:07:04;;;;;;;3.13;1.40;;;16.50;15.40;;;;;;5004347;28;20053;-68
2022/05/31 13:09:36;;;;;;;2.35;1.17;;;16.50;12.40;;;;;;5000860;28;20052;-70
2022/05/31 13:21:06;;;;;;;2.20;1.02;;;16.30;16.90;;;;;;5004282;28;20052;-69
2022/05/31 13:23:41;;;;;;;4.20;1.38;;;16.30;16.20;;;;;;5009284;28;20049;-63
2022/05/31 13:26:31;;;;;;;1.42;1.15;;;16.30;14.60;;;;;;5006870;28;20053;-66
2022/05/31 13:29:08;;;;;;;1.40;1.17;;;16.30;13.10;;;;;;5025130;28;20446;-64
2022/05/31 13:31:44;;;;;;;1.27;1.17;;;16.30;13.00;;;;;;5007546;28;20044;-69
2022/05/31 13:34:10;;;;;;;2.05;1.27;;;16.30;14.00;;;;;;5007659;28;20551;-67
2022/05/31 13:36:48;;;;;;;4.85;1.45;;;16.40;13.90;;;;;;5003562;28;20042;-69
2022/05/31 13:39:16;;;;;;;1.55;1.00;;;16.50;16.00;;;;;;5006650;28;20106;-73
2022/05/31 13:41:47;;;;;;;8.48;1.20;;;16.60;14.40;;;;;;5006603;28;20159;-71
2022/05/31 13:44:14;;;;;;;1.65;1.38;;;16.70;16.70;;;;;;5002774;28;20045;-71
2022/05/31 13:46:45;;;;;;;9.38;1.70;;;16.80;14.30;;;;;;5006496;28;20045;-69
2022/05/31 13:49:22;;;;;;;1.40;1.13;;;16.70;12.10;;;;;;5007814;28;20128;-63